Impacts METAR Board
IDs:

KEWR - Newark Intl, NJ, US

Updated at: 0100 UTC 31 May 2020
Potential Impact None Slight Moderate High
Time 30/13Z 30/14Z 30/15Z 30/16Z 30/17Z 30/18Z 30/19Z 30/20Z 30/21Z 30/22Z 30/23Z 31/00Z 31/01Z
Temp72 71 74 76 78 81 83 83 84 83 80 79 77
Dewpt60 59 54 53 53 49 47 48 46 45 44 47 48
Altim29.91 29.92 29.91 29.91 29.89 29.88 29.86 29.85 29.86 29.85 29.85 29.87 29.88
VIS10 10 10 10 10 10 10 10 10 10 10 10 10
CIG280 280 280 -- -- -- -- -- -- -- 100 80 90
CoverBKNBKNBKNSCTSCTFEWFEWFEWSCTSCTBKNBKNBKN
FltCatVFRVFRVFRVFRVFRVFRVFRVFRVFRVFRVFRVFRVFR
WX--------------------------
WDir330330310310280290310310270250270270270
WSpd10 12 14 8 10 9 13 8 14 15 9 13 9
WGst17 -- -- -- -- 19 -- -- -- 19 -- 21 --
Raw hourly METARs
KEWR 301251Z 33010G17KT 10SM SCT025 SCT150 BKN280 22/16 A2991 RMK AO2 SLP128 T02220156
KEWR 301351Z 33012KT 10SM SCT029 BKN280 22/15 A2992 RMK AO2 SLP130 T02170150
KEWR 301451Z 31014KT 10SM SCT035 BKN280 23/12 A2991 RMK AO2 SLP129 T02330122 50003
KEWR 301551Z 31008KT 10SM FEW045 FEW120 SCT280 24/12 A2991 RMK AO2 SLP126 T02440117
KEWR 301651Z 28010KT 10SM FEW055 FEW110 SCT280 26/12 A2989 RMK AO2 SLP122 T02560117
KEWR 301751Z 29009G19KT 10SM FEW065 FEW280 27/09 A2988 RMK AO2 SLP116 T02720094 10272 20217 58013
KEWR 301851Z 31013KT 10SM FEW070 FEW280 28/08 A2986 RMK AO2 SLP111 T02830083
KEWR 301951Z 31008KT 10SM FEW075 FEW280 28/09 A2985 RMK AO2 SLP108 T02830089
KEWR 302051Z 27014KT 10SM SCT080 SCT280 29/08 A2986 RMK AO2 SLP109 T02890078 55007
KEWR 302151Z 25015G19KT 10SM SCT080 SCT100 SCT280 28/07 A2985 RMK AO2 SLP106 T02830072
KEWR 302251Z 27009KT 10SM FEW075 BKN100 BKN280 27/07 A2985 RMK AO2 SLP109 T02670067
KEWR 302351Z 27013G21KT 10SM BKN080 BKN280 26/08 A2987 RMK AO2 SLP113 T02610083 10289 20261 53004
KEWR 310051Z 27009KT 10SM FEW075 BKN090 25/09 A2988 RMK AO2 SLP116 T02500089



Page loaded:  01:45 UTC  |   06:45 PM Pacific  |   07:45 PM Mountain  |   08:45 PM Central  |   09:45 PM Eastern

 

ADVISORIES

FORECASTS

FORECASTS

OBSERVATIONS

USER TOOLS

ABOUT US